Time;durP1;ratioP1;P1;durP2;ratioP2;P2;SDS_P1;SDS_P2;PMS_P1;PMS_P2;Temp;Humidity;BMP_temperature;BMP_pressure;BME280_temperature;BME280_humidity;BME280_pressure;Samples;Min_cycle;Max_cycle;Signal;HPM_P1;HPM_P2
2019/07/11 00:00:03;;;;;;;6;2.5;;;;;;;;;;;;;
2019/07/11 00:02:28;;;;;;;2.9;1.8;;;;;;;;;;;;;
2019/07/11 00:04:53;;;;;;;4.7;2.7;;;;;;;;;;;;;
2019/07/11 00:07:19;;;;;;;6;2;;;;;;;;;;;;;
2019/07/11 00:09:44;;;;;;;3.8;1.8;;;;;;;;;;;;;
2019/07/11 00:12:09;;;;;;;4.7;1.7;;;;;;;;;;;;;
2019/07/11 00:14:34;;;;;;;4.7;2.5;;;;;;;;;;;;;
2019/07/11 00:16:59;;;;;;;2.7;1.6;;;;;;;;;;;;;
2019/07/11 00:19:24;;;;;;;3.3;2.2;;;;;;;;;;;;;
2019/07/11 00:21:49;;;;;;;2.7;1.6;;;;;;;;;;;;;
2019/07/11 00:24:14;;;;;;;4.2;1.5;;;;;;;;;;;;;
2019/07/11 00:26:39;;;;;;;2.8;1.5;;;;;;;;;;;;;
2019/07/11 00:29:04;;;;;;;2.9;1.7;;;;;;;;;;;;;
2019/07/11 00:31:30;;;;;;;3.3;1.6;;;;;;;;;;;;;
2019/07/11 00:33:55;;;;;;;2.2;1.4;;;;;;;;;;;;;
2019/07/11 00:36:20;;;;;;;4;1.7;;;;;;;;;;;;;
2019/07/11 00:38:45;;;;;;;2.5;1.4;;;;;;;;;;;;;
2019/07/11 00:41:10;;;;;;;3.7;1.5;;;;;;;;;;;;;
2019/07/11 00:43:35;;;;;;;3;1.7;;;;;;;;;;;;;
2019/07/11 00:46:00;;;;;;;3.6;1.7;;;;;;;;;;;;;
2019/07/11 00:48:25;;;;;;;4;1.5;;;;;;;;;;;;;
2019/07/11 00:50:51;;;;;;;3.3;1.7;;;;;;;;;;;;;
2019/07/11 00:53:16;;;;;;;3.3;1.8;;;;;;;;;;;;;
2019/07/11 00:55:41;;;;;;;3.8;1.8;;;;;;;;;;;;;
2019/07/11 00:58:06;;;;;;;2.6;1.5;;;;;;;;;;;;;
2019/07/11 01:00:31;;;;;;;3.9;1.7;;;;;;;;;;;;;
2019/07/11 01:02:56;;;;;;;3.1;1.6;;;;;;;;;;;;;
2019/07/11 01:05:21;;;;;;;2.6;1.5;;;;;;;;;;;;;
2019/07/11 01:07:46;;;;;;;2.6;1.5;;;;;;;;;;;;;
2019/07/11 01:10:11;;;;;;;3;1.6;;;;;;;;;;;;;
2019/07/11 01:12:37;;;;;;;3.9;1.7;;;;;;;;;;;;;
2019/07/11 01:15:02;;;;;;;4.5;1.7;;;;;;;;;;;;;
2019/07/11 01:17:27;;;;;;;2.1;1.5;;;;;;;;;;;;;
2019/07/11 01:19:52;;;;;;;2.2;1.6;;;;;;;;;;;;;
2019/07/11 01:22:17;;;;;;;4.2;1.6;;;;;;;;;;;;;
2019/07/11 01:24:42;;;;;;;2.1;1.3;;;;;;;;;;;;;
2019/07/11 01:27:07;;;;;;;3.5;1.5;;;;;;;;;;;;;
2019/07/11 01:29:32;;;;;;;3.6;1.9;;;;;;;;;;;;;
2019/07/11 01:31:57;;;;;;;2.7;1.8;;;;;;;;;;;;;
2019/07/11 01:34:23;;;;;;;2.8;1.9;;;;;;;;;;;;;
2019/07/11 01:36:48;;;;;;;2.9;1.9;;;;;;;;;;;;;
2019/07/11 01:39:13;;;;;;;3.2;1.9;;;;;;;;;;;;;
2019/07/11 01:41:38;;;;;;;3.9;1.9;;;;;;;;;;;;;
2019/07/11 01:44:03;;;;;;;4.7;1.8;;;;;;;;;;;;;
2019/07/11 01:46:28;;;;;;;4;1.9;;;;;;;;;;;;;
2019/07/11 01:48:53;;;;;;;3.7;1.8;;;;;;;;;;;;;
2019/07/11 01:51:18;;;;;;;2.7;1.7;;;;;;;;;;;;;
2019/07/11 01:53:43;;;;;;;3.6;2.2;;;;;;;;;;;;;
2019/07/11 01:56:08;;;;;;;2.9;1.8;;;;;;;;;;;;;
2019/07/11 01:58:33;;;;;;;2.5;1.7;;;;;;;;;;;;;
2019/07/11 02:00:59;;;;;;;3.1;1.8;;;;;;;;;;;;;
2019/07/11 02:03:24;;;;;;;2.7;1.7;;;;;;;;;;;;;
2019/07/11 02:05:49;;;;;;;3.4;1.7;;;;;;;;;;;;;
2019/07/11 02:08:14;;;;;;;3;1.8;;;;;;;;;;;;;
2019/07/11 02:10:39;;;;;;;4.5;2;;;;;;;;;;;;;
2019/07/11 02:13:04;;;;;;;3.7;1.8;;;;;;;;;;;;;
2019/07/11 02:15:29;;;;;;;3.1;2;;;;;;;;;;;;;
2019/07/11 02:17:54;;;;;;;3;1.9;;;;;;;;;;;;;
2019/07/11 02:20:19;;;;;;;3.3;1.7;;;;;;;;;;;;;
2019/07/11 02:22:44;;;;;;;2.9;1.8;;;;;;;;;;;;;
2019/07/11 02:25:09;;;;;;;3.7;1.7;;;;;;;;;;;;;
2019/07/11 02:27:34;;;;;;;2.9;1.9;;;;;;;;;;;;;
2019/07/11 02:30:00;;;;;;;3.7;1.9;;;;;;;;;;;;;
2019/07/11 02:32:25;;;;;;;3.7;1.8;;;;;;;;;;;;;
2019/07/11 02:34:50;;;;;;;3.6;1.8;;;;;;;;;;;;;
2019/07/11 02:37:15;;;;;;;3;1.8;;;;;;;;;;;;;
2019/07/11 02:39:40;;;;;;;1.8;1.5;;;;;;;;;;;;;
2019/07/11 02:42:05;;;;;;;3.2;1.7;;;;;;;;;;;;;
2019/07/11 02:44:30;;;;;;;3.9;1.6;;;;;;;;;;;;;
2019/07/11 02:46:56;;;;;;;2.3;1.6;;;;;;;;;;;;;
2019/07/11 02:49:21;;;;;;;3.3;1.8;;;;;;;;;;;;;
2019/07/11 02:51:46;;;;;;;3.3;1.8;;;;;;;;;;;;;
2019/07/11 02:54:11;;;;;;;3.5;1.6;;;;;;;;;;;;;
2019/07/11 02:56:36;;;;;;;3.2;1.9;;;;;;;;;;;;;
2019/07/11 02:59:01;;;;;;;2.5;1.7;;;;;;;;;;;;;
2019/07/11 03:01:26;;;;;;;4.4;2.1;;;;;;;;;;;;;
2019/07/11 03:03:51;;;;;;;3.6;1.9;;;;;;;;;;;;;
2019/07/11 03:06:16;;;;;;;2.9;1.7;;;;;;;;;;;;;
2019/07/11 03:08:41;;;;;;;4.2;2.2;;;;;;;;;;;;;
2019/07/11 03:11:06;;;;;;;4;2.1;;;;;;;;;;;;;
2019/07/11 03:13:31;;;;;;;3.2;2.1;;;;;;;;;;;;;
2019/07/11 03:15:56;;;;;;;4.3;2;;;;;;;;;;;;;
2019/07/11 03:18:21;;;;;;;5.2;1.8;;;;;;;;;;;;;
2019/07/11 03:20:47;;;;;;;5.1;2;;;;;;;;;;;;;
2019/07/11 03:23:12;;;;;;;3.4;1.8;;;;;;;;;;;;;
2019/07/11 03:25:37;;;;;;;4.2;1.8;;;;;;;;;;;;;
2019/07/11 03:28:02;;;;;;;2.3;1.6;;;;;;;;;;;;;
2019/07/11 03:30:27;;;;;;;4.2;1.6;;;;;;;;;;;;;
2019/07/11 03:32:52;;;;;;;4.9;1.6;;;;;;;;;;;;;
2019/07/11 03:35:17;;;;;;;4.1;1.6;;;;;;;;;;;;;
2019/07/11 03:37:42;;;;;;;2.5;1.6;;;;;;;;;;;;;
2019/07/11 03:40:07;;;;;;;3.9;2;;;;;;;;;;;;;
2019/07/11 03:42:32;;;;;;;5.4;2.3;;;;;;;;;;;;;
2019/07/11 03:44:58;;;;;;;4;2.3;;;;;;;;;;;;;
2019/07/11 03:47:23;;;;;;;5.2;2.3;;;;;;;;;;;;;
2019/07/11 03:49:48;;;;;;;6;2.5;;;;;;;;;;;;;
2019/07/11 03:52:13;;;;;;;3.8;2.3;;;;;;;;;;;;;
2019/07/11 03:54:38;;;;;;;4;2.2;;;;;;;;;;;;;
2019/07/11 03:57:03;;;;;;;3.1;2.3;;;;;;;;;;;;;
2019/07/11 03:59:28;;;;;;;3.7;2.1;;;;;;;;;;;;;
2019/07/11 04:02:28;;;;;;;4.6;2.3;;;;;;;;;;;;;
2019/07/11 04:04:53;;;;;;;5.7;2.3;;;;;;;;;;;;;
2019/07/11 04:07:18;;;;;;;5;2.5;;;;;;;;;;;;;
2019/07/11 04:09:44;;;;;;;3.9;2.1;;;;;;;;;;;;;
2019/07/11 04:12:09;;;;;;;4;2.1;;;;;;;;;;;;;
2019/07/11 04:14:34;;;;;;;4.2;2.3;;;;;;;;;;;;;
2019/07/11 04:16:59;;;;;;;3.1;2.2;;;;;;;;;;;;;
2019/07/11 04:19:24;;;;;;;3.7;2;;;;;;;;;;;;;
2019/07/11 04:21:49;;;;;;;3.6;2.2;;;;;;;;;;;;;
2019/07/11 04:24:14;;;;;;;5;2.6;;;;;;;;;;;;;
2019/07/11 04:26:39;;;;;;;5.7;2.4;;;;;;;;;;;;;
2019/07/11 04:29:04;;;;;;;5;2.3;;;;;;;;;;;;;
2019/07/11 04:31:30;;;;;;;5;2.3;;;;;;;;;;;;;
2019/07/11 04:33:55;;;;;;;4.1;2.2;;;;;;;;;;;;;
2019/07/11 04:36:20;;;;;;;7.1;2.4;;;;;;;;;;;;;
2019/07/11 04:38:45;;;;;;;5.2;2.5;;;;;;;;;;;;;
2019/07/11 04:41:10;;;;;;;5.2;2.4;;;;;;;;;;;;;
2019/07/11 04:43:36;;;;;;;4.2;2.2;;;;;;;;;;;;;
2019/07/11 04:46:01;;;;;;;4.8;2.4;;;;;;;;;;;;;
2019/07/11 04:48:26;;;;;;;6.3;2.5;;;;;;;;;;;;;
2019/07/11 04:50:51;;;;;;;5.7;2.7;;;;;;;;;;;;;
2019/07/11 04:53:23;;;;;;;5.6;2.3;;;;;;;;;;;;;
2019/07/11 04:55:41;;;;;;;4.7;2.1;;;;;;;;;;;;;
2019/07/11 04:58:06;;;;;;;4.9;2.1;;;;;;;;;;;;;
2019/07/11 05:00:31;;;;;;;5.2;2.2;;;;;;;;;;;;;
2019/07/11 05:02:56;;;;;;;7.1;2.2;;;;;;;;;;;;;
2019/07/11 05:05:21;;;;;;;5.2;2.2;;;;;;;;;;;;;
2019/07/11 05:07:47;;;;;;;5.4;2.2;;;;;;;;;;;;;
2019/07/11 05:10:12;;;;;;;4.7;2;;;;;;;;;;;;;
2019/07/11 05:12:37;;;;;;;7.1;2.7;;;;;;;;;;;;;
2019/07/11 05:15:02;;;;;;;7.1;2.4;;;;;;;;;;;;;
2019/07/11 05:17:27;;;;;;;6.4;2.3;;;;;;;;;;;;;
2019/07/11 05:19:52;;;;;;;7.3;2.4;;;;;;;;;;;;;
2019/07/11 05:22:17;;;;;;;4.7;2.2;;;;;;;;;;;;;
2019/07/11 05:24:42;;;;;;;3.7;2.1;;;;;;;;;;;;;
2019/07/11 05:27:07;;;;;;;4.7;2.2;;;;;;;;;;;;;
2019/07/11 05:29:32;;;;;;;5.6;2.2;;;;;;;;;;;;;
2019/07/11 05:31:58;;;;;;;4.5;2.2;;;;;;;;;;;;;
2019/07/11 05:34:23;;;;;;;4.9;2.3;;;;;;;;;;;;;
2019/07/11 05:36:48;;;;;;;3.7;2.3;;;;;;;;;;;;;
2019/07/11 05:39:13;;;;;;;6.5;2.4;;;;;;;;;;;;;
2019/07/11 05:41:38;;;;;;;4.9;2.4;;;;;;;;;;;;;
2019/07/11 05:44:03;;;;;;;4.2;2.6;;;;;;;;;;;;;
2019/07/11 05:46:28;;;;;;;4.6;2.6;;;;;;;;;;;;;
2019/07/11 05:48:53;;;;;;;9.9;3.2;;;;;;;;;;;;;
2019/07/11 05:51:18;;;;;;;6.7;2.9;;;;;;;;;;;;;
2019/07/11 05:53:43;;;;;;;5;2.6;;;;;;;;;;;;;
2019/07/11 05:56:08;;;;;;;6;2.5;;;;;;;;;;;;;
2019/07/11 05:58:34;;;;;;;10.2;2.6;;;;;;;;;;;;;
2019/07/11 06:00:59;;;;;;;8.6;2.9;;;;;;;;;;;;;
2019/07/11 06:03:24;;;;;;;8;2.9;;;;;;;;;;;;;
2019/07/11 06:05:49;;;;;;;6.3;2.7;;;;;;;;;;;;;
2019/07/11 06:08:14;;;;;;;9.1;2.8;;;;;;;;;;;;;
2019/07/11 06:10:39;;;;;;;7.5;2.8;;;;;;;;;;;;;
2019/07/11 06:13:04;;;;;;;6.1;2.4;;;;;;;;;;;;;
2019/07/11 06:15:29;;;;;;;6.4;2.3;;;;;;;;;;;;;
2019/07/11 06:17:54;;;;;;;4.4;2.4;;;;;;;;;;;;;
2019/07/11 06:20:19;;;;;;;4.7;2.8;;;;;;;;;;;;;
2019/07/11 06:22:44;;;;;;;8.1;2.6;;;;;;;;;;;;;
2019/07/11 06:25:09;;;;;;;8.7;3;;;;;;;;;;;;;
2019/07/11 06:27:35;;;;;;;7.7;2.9;;;;;;;;;;;;;
2019/07/11 06:30:00;;;;;;;6.9;2.3;;;;;;;;;;;;;
2019/07/11 06:32:25;;;;;;;3.2;2;;;;;;;;;;;;;
2019/07/11 06:34:50;;;;;;;7;2.1;;;;;;;;;;;;;
2019/07/11 06:37:15;;;;;;;6.1;2;;;;;;;;;;;;;
2019/07/11 06:39:40;;;;;;;4.4;1.7;;;;;;;;;;;;;
2019/07/11 06:42:05;;;;;;;3.1;1.7;;;;;;;;;;;;;
2019/07/11 06:44:30;;;;;;;2.9;1.6;;;;;;;;;;;;;
2019/07/11 06:46:56;;;;;;;3.8;1.7;;;;;;;;;;;;;
2019/07/11 06:49:21;;;;;;;3.2;1.7;;;;;;;;;;;;;
2019/07/11 06:51:46;;;;;;;5.7;1.9;;;;;;;;;;;;;
2019/07/11 06:54:11;;;;;;;5.8;2;;;;;;;;;;;;;
2019/07/11 06:56:36;;;;;;;3.8;2.1;;;;;;;;;;;;;
2019/07/11 06:59:01;;;;;;;3.9;2;;;;;;;;;;;;;
2019/07/11 07:01:26;;;;;;;6;1.9;;;;;;;;;;;;;
2019/07/11 07:03:51;;;;;;;6.7;1.9;;;;;;;;;;;;;
2019/07/11 07:06:16;;;;;;;5.7;2.7;;;;;;;;;;;;;
2019/07/11 07:08:42;;;;;;;6.4;2.7;;;;;;;;;;;;;
2019/07/11 07:11:07;;;;;;;7.2;2.9;;;;;;;;;;;;;
2019/07/11 07:13:32;;;;;;;5;2.8;;;;;;;;;;;;;
2019/07/11 07:15:57;;;;;;;6.2;2.9;;;;;;;;;;;;;
2019/07/11 07:18:22;;;;;;;4.9;2.8;;;;;;;;;;;;;
2019/07/11 07:20:47;;;;;;;10;3.6;;;;;;;;;;;;;
2019/07/11 07:23:12;;;;;;;5.5;3.5;;;;;;;;;;;;;
2019/07/11 07:25:37;;;;;;;8;3.8;;;;;;;;;;;;;
2019/07/11 07:28:02;;;;;;;6.2;3.7;;;;;;;;;;;;;
2019/07/11 07:30:27;;;;;;;8;4;;;;;;;;;;;;;
2019/07/11 07:32:52;;;;;;;9.4;4.4;;;;;;;;;;;;;
2019/07/11 07:35:18;;;;;;;6.9;4;;;;;;;;;;;;;
2019/07/11 07:37:43;;;;;;;6.7;3.7;;;;;;;;;;;;;
2019/07/11 07:40:08;;;;;;;10;4.5;;;;;;;;;;;;;
2019/07/11 07:42:33;;;;;;;6.2;3.8;;;;;;;;;;;;;
2019/07/11 07:44:58;;;;;;;7.3;3.5;;;;;;;;;;;;;
2019/07/11 07:47:23;;;;;;;7.1;3.6;;;;;;;;;;;;;
2019/07/11 07:49:48;;;;;;;6.9;3.5;;;;;;;;;;;;;
2019/07/11 07:52:13;;;;;;;9.3;3.1;;;;;;;;;;;;;
2019/07/11 07:54:38;;;;;;;10;3.2;;;;;;;;;;;;;
2019/07/11 07:57:03;;;;;;;5.2;2.7;;;;;;;;;;;;;
2019/07/11 07:59:28;;;;;;;6.1;2.8;;;;;;;;;;;;;
2019/07/11 08:01:53;;;;;;;11.1;2.6;;;;;;;;;;;;;
2019/07/11 08:04:18;;;;;;;5.4;2.6;;;;;;;;;;;;;
2019/07/11 08:06:43;;;;;;;6.5;2.6;;;;;;;;;;;;;
2019/07/11 08:09:09;;;;;;;6.4;2.5;;;;;;;;;;;;;
2019/07/11 08:11:34;;;;;;;9.8;2.7;;;;;;;;;;;;;
2019/07/11 08:13:59;;;;;;;4.6;2.3;;;;;;;;;;;;;
2019/07/11 08:16:24;;;;;;;5.1;2;;;;;;;;;;;;;
2019/07/11 08:18:49;;;;;;;5.8;2.4;;;;;;;;;;;;;
2019/07/11 08:21:14;;;;;;;5.4;2.3;;;;;;;;;;;;;
2019/07/11 08:23:40;;;;;;;4.6;2.1;;;;;;;;;;;;;
2019/07/11 08:26:05;;;;;;;5;2;;;;;;;;;;;;;
2019/07/11 08:28:30;;;;;;;4.9;1.9;;;;;;;;;;;;;
2019/07/11 08:30:55;;;;;;;4.1;1.9;;;;;;;;;;;;;
2019/07/11 08:33:20;;;;;;;5;2.2;;;;;;;;;;;;;
2019/07/11 08:35:45;;;;;;;4.9;1.8;;;;;;;;;;;;;
2019/07/11 08:38:10;;;;;;;3.1;1.4;;;;;;;;;;;;;
2019/07/11 08:40:35;;;;;;;2.4;1.4;;;;;;;;;;;;;
2019/07/11 08:43:00;;;;;;;5.7;1.5;;;;;;;;;;;;;
2019/07/11 08:45:25;;;;;;;2.8;1.4;;;;;;;;;;;;;
2019/07/11 08:47:50;;;;;;;5.5;1.8;;;;;;;;;;;;;
2019/07/11 08:50:16;;;;;;;4.3;1.7;;;;;;;;;;;;;
2019/07/11 08:52:41;;;;;;;5.1;1.7;;;;;;;;;;;;;
2019/07/11 08:55:06;;;;;;;3.2;1.3;;;;;;;;;;;;;
2019/07/11 08:57:31;;;;;;;5;1.8;;;;;;;;;;;;;
2019/07/11 08:59:56;;;;;;;3.1;1.4;;;;;;;;;;;;;
2019/07/11 09:02:21;;;;;;;4.1;1.6;;;;;;;;;;;;;
2019/07/11 09:04:46;;;;;;;4.3;1.6;;;;;;;;;;;;;
2019/07/11 09:07:11;;;;;;;3.1;1.8;;;;;;;;;;;;;
2019/07/11 09:09:36;;;;;;;4.4;1.6;;;;;;;;;;;;;
2019/07/11 09:12:02;;;;;;;4.8;1.7;;;;;;;;;;;;;
2019/07/11 09:14:27;;;;;;;2.9;1.6;;;;;;;;;;;;;
2019/07/11 09:16:52;;;;;;;3.4;1.6;;;;;;;;;;;;;
2019/07/11 09:19:17;;;;;;;3.9;1.6;;;;;;;;;;;;;
2019/07/11 09:21:42;;;;;;;3.9;1.6;;;;;;;;;;;;;
2019/07/11 09:24:07;;;;;;;4.4;1.5;;;;;;;;;;;;;
2019/07/11 09:26:32;;;;;;;3.7;1.6;;;;;;;;;;;;;
2019/07/11 09:28:57;;;;;;;2.6;1.3;;;;;;;;;;;;;
2019/07/11 09:31:22;;;;;;;4.3;1.5;;;;;;;;;;;;;
2019/07/11 09:33:47;;;;;;;4.1;1.3;;;;;;;;;;;;;
2019/07/11 09:36:12;;;;;;;2.2;1.6;;;;;;;;;;;;;
2019/07/11 09:38:37;;;;;;;4.3;1.6;;;;;;;;;;;;;
2019/07/11 09:41:03;;;;;;;4.4;1.5;;;;;;;;;;;;;
2019/07/11 09:43:28;;;;;;;2.8;1.3;;;;;;;;;;;;;
2019/07/11 09:45:53;;;;;;;5.1;2.2;;;;;;;;;;;;;
2019/07/11 09:48:18;;;;;;;3.1;1.6;;;;;;;;;;;;;
2019/07/11 09:50:43;;;;;;;3.1;1.4;;;;;;;;;;;;;
2019/07/11 09:53:08;;;;;;;3.5;1.4;;;;;;;;;;;;;
2019/07/11 09:55:33;;;;;;;4.3;1.1;;;;;;;;;;;;;
2019/07/11 09:57:58;;;;;;;2.4;1.1;;;;;;;;;;;;;
2019/07/11 10:00:23;;;;;;;3.2;1.3;;;;;;;;;;;;;
2019/07/11 10:02:48;;;;;;;4.4;1.3;;;;;;;;;;;;;
2019/07/11 10:05:13;;;;;;;5;1.1;;;;;;;;;;;;;
2019/07/11 10:07:39;;;;;;;2.7;1.4;;;;;;;;;;;;;
2019/07/11 10:10:04;;;;;;;4.9;1.1;;;;;;;;;;;;;
2019/07/11 10:12:29;;;;;;;3.9;1.3;;;;;;;;;;;;;
2019/07/11 10:14:54;;;;;;;3.3;1.2;;;;;;;;;;;;;
2019/07/11 10:17:19;;;;;;;3.5;1.2;;;;;;;;;;;;;
2019/07/11 10:19:44;;;;;;;4;1.2;;;;;;;;;;;;;
2019/07/11 10:22:09;;;;;;;5.2;1.2;;;;;;;;;;;;;
2019/07/11 10:24:34;;;;;;;3.3;1.2;;;;;;;;;;;;;
2019/07/11 10:26:59;;;;;;;3.2;1.1;;;;;;;;;;;;;
2019/07/11 10:29:24;;;;;;;4.2;1.2;;;;;;;;;;;;;
2019/07/11 10:31:50;;;;;;;4.4;1.4;;;;;;;;;;;;;
2019/07/11 10:34:15;;;;;;;3.4;1.4;;;;;;;;;;;;;
2019/07/11 10:36:40;;;;;;;3.2;1.4;;;;;;;;;;;;;
2019/07/11 10:39:05;;;;;;;2.3;1.2;;;;;;;;;;;;;
2019/07/11 10:41:30;;;;;;;3.6;1.6;;;;;;;;;;;;;
2019/07/11 10:43:55;;;;;;;3.7;1.5;;;;;;;;;;;;;
2019/07/11 10:46:20;;;;;;;3.8;1.5;;;;;;;;;;;;;
2019/07/11 10:48:45;;;;;;;3.6;1.5;;;;;;;;;;;;;
2019/07/11 10:51:10;;;;;;;4;1.3;;;;;;;;;;;;;
2019/07/11 10:53:35;;;;;;;3.5;1.3;;;;;;;;;;;;;
2019/07/11 10:56:00;;;;;;;3.1;1.6;;;;;;;;;;;;;
2019/07/11 10:58:26;;;;;;;3.7;1.5;;;;;;;;;;;;;
2019/07/11 11:00:51;;;;;;;4.4;1.3;;;;;;;;;;;;;
2019/07/11 11:03:16;;;;;;;3.6;1.3;;;;;;;;;;;;;
2019/07/11 11:05:41;;;;;;;4.5;1.3;;;;;;;;;;;;;
2019/07/11 11:08:06;;;;;;;2.8;1.3;;;;;;;;;;;;;
2019/07/11 11:10:31;;;;;;;3.4;1.5;;;;;;;;;;;;;
2019/07/11 11:12:56;;;;;;;6.9;1.6;;;;;;;;;;;;;
2019/07/11 11:15:21;;;;;;;5.2;1.3;;;;;;;;;;;;;
2019/07/11 11:17:46;;;;;;;4.8;1.2;;;;;;;;;;;;;
2019/07/11 11:20:11;;;;;;;3.9;1.2;;;;;;;;;;;;;
2019/07/11 11:22:37;;;;;;;3.4;1.4;;;;;;;;;;;;;
2019/07/11 11:25:02;;;;;;;2.4;1.3;;;;;;;;;;;;;
2019/07/11 11:27:27;;;;;;;4.8;1.6;;;;;;;;;;;;;
2019/07/11 11:29:54;;;;;;;4.6;1.8;;;;;;;;;;;;;
2019/07/11 11:32:18;;;;;;;3;1.8;;;;;;;;;;;;;
2019/07/11 11:34:43;;;;;;;6.1;2.1;;;;;;;;;;;;;
2019/07/11 11:37:08;;;;;;;6.7;2.3;;;;;;;;;;;;;
2019/07/11 11:39:33;;;;;;;5.5;3;;;;;;;;;;;;;
2019/07/11 11:41:58;;;;;;;4.8;2.7;;;;;;;;;;;;;
2019/07/11 11:44:24;;;;;;;3.9;2.9;;;;;;;;;;;;;
2019/07/11 11:46:49;;;;;;;3.9;2.8;;;;;;;;;;;;;
2019/07/11 11:49:14;;;;;;;5.8;2.9;;;;;;;;;;;;;
2019/07/11 11:51:39;;;;;;;8.6;3.4;;;;;;;;;;;;;
2019/07/11 11:54:04;;;;;;;6.5;2.9;;;;;;;;;;;;;
2019/07/11 11:56:29;;;;;;;5.8;3.2;;;;;;;;;;;;;
2019/07/11 11:58:54;;;;;;;4.6;2.9;;;;;;;;;;;;;
2019/07/11 12:01:20;;;;;;;4.2;2.8;;;;;;;;;;;;;
2019/07/11 12:03:45;;;;;;;4.9;3;;;;;;;;;;;;;
2019/07/11 12:06:10;;;;;;;4.8;3.4;;;;;;;;;;;;;
2019/07/11 12:08:35;;;;;;;4.6;3.2;;;;;;;;;;;;;
2019/07/11 12:11:00;;;;;;;5;3;;;;;;;;;;;;;
2019/07/11 12:13:25;;;;;;;5.6;3.3;;;;;;;;;;;;;
2019/07/11 12:15:50;;;;;;;6.7;3.8;;;;;;;;;;;;;
2019/07/11 12:18:15;;;;;;;4.9;3.4;;;;;;;;;;;;;
2019/07/11 12:20:40;;;;;;;7.6;4.1;;;;;;;;;;;;;
2019/07/11 12:23:05;;;;;;;4.1;3.6;;;;;;;;;;;;;
2019/07/11 12:25:30;;;;;;;6.3;4.3;;;;;;;;;;;;;
2019/07/11 12:27:56;;;;;;;5.8;4.2;;;;;;;;;;;;;
2019/07/11 12:30:21;;;;;;;5.2;4;;;;;;;;;;;;;
2019/07/11 12:32:46;;;;;;;5.8;4.3;;;;;;;;;;;;;
2019/07/11 12:35:11;;;;;;;6.1;4.6;;;;;;;;;;;;;
2019/07/11 12:37:36;;;;;;;6.5;4.8;;;;;;;;;;;;;
2019/07/11 12:40:01;;;;;;;5.9;4.8;;;;;;;;;;;;;
2019/07/11 12:42:26;;;;;;;5.8;4;;;;;;;;;;;;;
2019/07/11 12:44:51;;;;;;;7.7;4.6;;;;;;;;;;;;;
2019/07/11 12:47:16;;;;;;;6.2;4.6;;;;;;;;;;;;;
2019/07/11 12:49:41;;;;;;;7.7;4.6;;;;;;;;;;;;;
2019/07/11 12:52:07;;;;;;;6.6;5.3;;;;;;;;;;;;;
2019/07/11 12:54:32;;;;;;;7.1;4.7;;;;;;;;;;;;;
2019/07/11 12:56:57;;;;;;;6.5;4.6;;;;;;;;;;;;;
2019/07/11 12:59:22;;;;;;;8.1;5.3;;;;;;;;;;;;;
2019/07/11 13:01:47;;;;;;;8.8;5.8;;;;;;;;;;;;;
2019/07/11 13:04:12;;;;;;;7.9;5.6;;;;;;;;;;;;;
2019/07/11 13:06:37;;;;;;;9.9;5.2;;;;;;;;;;;;;
2019/07/11 13:09:03;;;;;;;5;4.1;;;;;;;;;;;;;
2019/07/11 13:11:28;;;;;;;6;4.8;;;;;;;;;;;;;
2019/07/11 13:13:53;;;;;;;6.3;4.7;;;;;;;;;;;;;
2019/07/11 13:16:18;;;;;;;6;4.6;;;;;;;;;;;;;
2019/07/11 13:18:43;;;;;;;6.6;5.2;;;;;;;;;;;;;
2019/07/11 13:21:08;;;;;;;6.2;4.4;;;;;;;;;;;;;
2019/07/11 13:23:33;;;;;;;4;2.9;;;;;;;;;;;;;
2019/07/11 13:28:23;;;;;;;3.4;2.5;;;;;;;;;;;;;
2019/07/11 13:30:48;;;;;;;3;2;;;;;;;;;;;;;
2019/07/11 13:33:14;;;;;;;4;2.1;;;;;;;;;;;;;
2019/07/11 13:35:39;;;;;;;2.9;1.9;;;;;;;;;;;;;
2019/07/11 13:38:04;;;;;;;3.6;2.7;;;;;;;;;;;;;
2019/07/11 13:40:29;;;;;;;3.1;2.1;;;;;;;;;;;;;
2019/07/11 13:42:54;;;;;;;5.1;2.4;;;;;;;;;;;;;
2019/07/11 13:45:19;;;;;;;3.2;2.2;;;;;;;;;;;;;
2019/07/11 13:47:44;;;;;;;4.2;2.5;;;;;;;;;;;;;
2019/07/11 13:50:09;;;;;;;2.8;2.3;;;;;;;;;;;;;
2019/07/11 13:52:34;;;;;;;5;3;;;;;;;;;;;;;
2019/07/11 13:54:59;;;;;;;4.7;2.3;;;;;;;;;;;;;
2019/07/11 13:57:24;;;;;;;4;2.4;;;;;;;;;;;;;
2019/07/11 13:59:49;;;;;;;4.2;2.6;;;;;;;;;;;;;
2019/07/11 14:02:14;;;;;;;3.7;2.5;;;;;;;;;;;;;
2019/07/11 14:04:40;;;;;;;4.4;2.7;;;;;;;;;;;;;
2019/07/11 14:07:05;;;;;;;4.4;2.8;;;;;;;;;;;;;
2019/07/11 14:09:30;;;;;;;4.6;3.6;;;;;;;;;;;;;
2019/07/11 14:11:55;;;;;;;3.5;2.6;;;;;;;;;;;;;
2019/07/11 14:14:20;;;;;;;4;2.6;;;;;;;;;;;;;
2019/07/11 14:16:45;;;;;;;4.4;2.7;;;;;;;;;;;;;
2019/07/11 14:19:10;;;;;;;5;3.2;;;;;;;;;;;;;
2019/07/11 14:21:35;;;;;;;6.8;3.8;;;;;;;;;;;;;
2019/07/11 14:24:00;;;;;;;6.1;3.9;;;;;;;;;;;;;
2019/07/11 14:26:25;;;;;;;4.2;3.4;;;;;;;;;;;;;
2019/07/11 14:28:50;;;;;;;4.7;3.3;;;;;;;;;;;;;
2019/07/11 14:31:15;;;;;;;4.6;3.4;;;;;;;;;;;;;
2019/07/11 14:33:41;;;;;;;4.3;3.7;;;;;;;;;;;;;
2019/07/11 14:36:06;;;;;;;5;3.7;;;;;;;;;;;;;
2019/07/11 14:38:31;;;;;;;6.1;5.1;;;;;;;;;;;;;
2019/07/11 14:40:56;;;;;;;6.4;4.6;;;;;;;;;;;;;
2019/07/11 14:43:21;;;;;;;5;4.2;;;;;;;;;;;;;
2019/07/11 14:45:46;;;;;;;5.8;4.1;;;;;;;;;;;;;
2019/07/11 14:48:11;;;;;;;4.4;4;;;;;;;;;;;;;
2019/07/11 14:50:36;;;;;;;4.4;3.8;;;;;;;;;;;;;
2019/07/11 14:53:01;;;;;;;6;4;;;;;;;;;;;;;
2019/07/11 14:55:26;;;;;;;6.8;4.1;;;;;;;;;;;;;
2019/07/11 14:57:51;;;;;;;6.7;4.7;;;;;;;;;;;;;
2019/07/11 15:00:16;;;;;;;6.3;4.2;;;;;;;;;;;;;
2019/07/11 15:02:41;;;;;;;6.1;5;;;;;;;;;;;;;
2019/07/11 15:05:07;;;;;;;4.2;3.8;;;;;;;;;;;;;
2019/07/11 15:07:32;;;;;;;5.7;5.1;;;;;;;;;;;;;
2019/07/11 15:09:57;;;;;;;4.4;4;;;;;;;;;;;;;
2019/07/11 15:12:22;;;;;;;5.3;3.8;;;;;;;;;;;;;
2019/07/11 15:14:47;;;;;;;4.4;4;;;;;;;;;;;;;
2019/07/11 15:17:12;;;;;;;7;4.5;;;;;;;;;;;;;
2019/07/11 15:19:37;;;;;;;5.6;4.2;;;;;;;;;;;;;
2019/07/11 15:22:02;;;;;;;4.2;3.6;;;;;;;;;;;;;
2019/07/11 15:24:27;;;;;;;4.5;3.6;;;;;;;;;;;;;
2019/07/11 15:26:52;;;;;;;5.6;3.8;;;;;;;;;;;;;
2019/07/11 15:29:17;;;;;;;4.5;3.5;;;;;;;;;;;;;
2019/07/11 15:31:43;;;;;;;4.6;4;;;;;;;;;;;;;
2019/07/11 15:34:08;;;;;;;5.4;4.1;;;;;;;;;;;;;
2019/07/11 15:36:33;;;;;;;5.2;3.9;;;;;;;;;;;;;
2019/07/11 15:38:58;;;;;;;4.6;3.7;;;;;;;;;;;;;
2019/07/11 15:41:23;;;;;;;5.2;4.3;;;;;;;;;;;;;
2019/07/11 15:43:48;;;;;;;6;4.4;;;;;;;;;;;;;
2019/07/11 15:46:14;;;;;;;4.3;3.1;;;;;;;;;;;;;
2019/07/11 15:48:38;;;;;;;4.1;3.7;;;;;;;;;;;;;
2019/07/11 15:51:03;;;;;;;4.5;3.9;;;;;;;;;;;;;
2019/07/11 15:53:28;;;;;;;4.2;3.5;;;;;;;;;;;;;
2019/07/11 15:55:54;;;;;;;5.3;3.4;;;;;;;;;;;;;
2019/07/11 15:58:19;;;;;;;4.6;3.9;;;;;;;;;;;;;
2019/07/11 16:00:44;;;;;;;4.4;3.9;;;;;;;;;;;;;
2019/07/11 16:03:09;;;;;;;4.9;4.4;;;;;;;;;;;;;
2019/07/11 16:05:34;;;;;;;5.7;3.7;;;;;;;;;;;;;
2019/07/11 16:07:59;;;;;;;4.9;4.1;;;;;;;;;;;;;
2019/07/11 16:10:25;;;;;;;4.8;4.3;;;;;;;;;;;;;
2019/07/11 16:12:49;;;;;;;5.5;4.1;;;;;;;;;;;;;
2019/07/11 16:15:15;;;;;;;5.8;4.3;;;;;;;;;;;;;
2019/07/11 16:17:39;;;;;;;4.5;4.1;;;;;;;;;;;;;
2019/07/11 16:20:04;;;;;;;5;4.5;;;;;;;;;;;;;
2019/07/11 16:22:29;;;;;;;4.6;4.1;;;;;;;;;;;;;
2019/07/11 16:24:55;;;;;;;5.5;4.4;;;;;;;;;;;;;
2019/07/11 16:27:20;;;;;;;5.2;4.7;;;;;;;;;;;;;
2019/07/11 16:29:45;;;;;;;5.2;4.5;;;;;;;;;;;;;
2019/07/11 16:32:10;;;;;;;5.9;5;;;;;;;;;;;;;
2019/07/11 16:34:35;;;;;;;7.3;5.1;;;;;;;;;;;;;
2019/07/11 16:37:00;;;;;;;5.5;4.9;;;;;;;;;;;;;
2019/07/11 16:39:25;;;;;;;6.2;5;;;;;;;;;;;;;
2019/07/11 16:41:50;;;;;;;6.8;5.7;;;;;;;;;;;;;
2019/07/11 16:44:16;;;;;;;6.9;6;;;;;;;;;;;;;
2019/07/11 16:46:41;;;;;;;6;5.4;;;;;;;;;;;;;
2019/07/11 16:49:06;;;;;;;5.7;5.2;;;;;;;;;;;;;
2019/07/11 16:51:31;;;;;;;7.3;6;;;;;;;;;;;;;
2019/07/11 16:53:56;;;;;;;6.9;6.3;;;;;;;;;;;;;
2019/07/11 16:56:21;;;;;;;6.7;5.4;;;;;;;;;;;;;
2019/07/11 16:58:46;;;;;;;6.2;5.5;;;;;;;;;;;;;
2019/07/11 17:01:11;;;;;;;7.9;6.8;;;;;;;;;;;;;
2019/07/11 17:03:37;;;;;;;8.3;7.1;;;;;;;;;;;;;
2019/07/11 17:06:02;;;;;;;6.9;6.2;;;;;;;;;;;;;
2019/07/11 17:08:27;;;;;;;7.4;5.9;;;;;;;;;;;;;
2019/07/11 17:10:52;;;;;;;6.9;6.2;;;;;;;;;;;;;
2019/07/11 17:13:17;;;;;;;5.5;5;;;;;;;;;;;;;
2019/07/11 17:15:42;;;;;;;7.7;6.8;;;;;;;;;;;;;
2019/07/11 17:18:07;;;;;;;7.5;6.6;;;;;;;;;;;;;
2019/07/11 17:20:32;;;;;;;8.9;7.3;;;;;;;;;;;;;
2019/07/11 17:22:58;;;;;;;7.7;6.7;;;;;;;;;;;;;
2019/07/11 17:25:23;;;;;;;7.5;6.8;;;;;;;;;;;;;
2019/07/11 17:27:48;;;;;;;8.4;7.2;;;;;;;;;;;;;
2019/07/11 17:30:13;;;;;;;8;7;;;;;;;;;;;;;
2019/07/11 17:32:38;;;;;;;7.1;6.4;;;;;;;;;;;;;
2019/07/11 17:35:03;;;;;;;8.1;7.3;;;;;;;;;;;;;
2019/07/11 17:37:28;;;;;;;8.5;7.5;;;;;;;;;;;;;
2019/07/11 17:39:53;;;;;;;7.4;6.7;;;;;;;;;;;;;
2019/07/11 17:42:18;;;;;;;8.1;7.3;;;;;;;;;;;;;
2019/07/11 17:44:44;;;;;;;8.9;8.1;;;;;;;;;;;;;
2019/07/11 17:47:09;;;;;;;8.7;7.3;;;;;;;;;;;;;
2019/07/11 17:49:34;;;;;;;7.8;7;;;;;;;;;;;;;
2019/07/11 17:51:59;;;;;;;8.7;6.9;;;;;;;;;;;;;
2019/07/11 17:54:24;;;;;;;7.3;6.6;;;;;;;;;;;;;
2019/07/11 17:56:49;;;;;;;6.8;6.2;;;;;;;;;;;;;
2019/07/11 17:59:15;;;;;;;9.1;7.6;;;;;;;;;;;;;
2019/07/11 18:01:39;;;;;;;7;6.3;;;;;;;;;;;;;
2019/07/11 18:04:04;;;;;;;7.1;6.4;;;;;;;;;;;;;
2019/07/11 18:06:29;;;;;;;7.6;6.6;;;;;;;;;;;;;
2019/07/11 18:08:55;;;;;;;7.7;6.9;;;;;;;;;;;;;
2019/07/11 18:11:20;;;;;;;7.9;7.1;;;;;;;;;;;;;
2019/07/11 18:13:45;;;;;;;7.7;6.8;;;;;;;;;;;;;
2019/07/11 18:16:10;;;;;;;7.6;6.9;;;;;;;;;;;;;
2019/07/11 18:18:35;;;;;;;7.3;6.3;;;;;;;;;;;;;
2019/07/11 18:21:00;;;;;;;7.6;6.9;;;;;;;;;;;;;
2019/07/11 18:23:26;;;;;;;8.2;6.8;;;;;;;;;;;;;
2019/07/11 18:25:51;;;;;;;7.2;6.5;;;;;;;;;;;;;
2019/07/11 18:28:16;;;;;;;8;7.2;;;;;;;;;;;;;
2019/07/11 18:30:41;;;;;;;7.2;6;;;;;;;;;;;;;
2019/07/11 18:33:06;;;;;;;6.7;6;;;;;;;;;;;;;
2019/07/11 18:35:31;;;;;;;6.1;5.5;;;;;;;;;;;;;
2019/07/11 18:37:56;;;;;;;6.4;5.1;;;;;;;;;;;;;
2019/07/11 18:40:21;;;;;;;6.4;5.7;;;;;;;;;;;;;
2019/07/11 18:42:46;;;;;;;6.4;5.8;;;;;;;;;;;;;
2019/07/11 18:45:12;;;;;;;5.7;5.2;;;;;;;;;;;;;
2019/07/11 18:47:37;;;;;;;5.6;5;;;;;;;;;;;;;
2019/07/11 18:50:02;;;;;;;6.1;5.5;;;;;;;;;;;;;
2019/07/11 18:52:27;;;;;;;5.9;5.3;;;;;;;;;;;;;
2019/07/11 18:54:52;;;;;;;5.6;5.1;;;;;;;;;;;;;
2019/07/11 18:57:17;;;;;;;7.3;6.6;;;;;;;;;;;;;
2019/07/11 18:59:42;;;;;;;7.1;6.4;;;;;;;;;;;;;
2019/07/11 19:02:07;;;;;;;6.9;6.2;;;;;;;;;;;;;
2019/07/11 19:04:32;;;;;;;7.5;6.8;;;;;;;;;;;;;
2019/07/11 19:06:57;;;;;;;6.8;6.1;;;;;;;;;;;;;
2019/07/11 19:09:22;;;;;;;6.7;5.9;;;;;;;;;;;;;
2019/07/11 19:11:47;;;;;;;6.8;6.1;;;;;;;;;;;;;
2019/07/11 19:14:12;;;;;;;7.7;6.9;;;;;;;;;;;;;
2019/07/11 19:16:37;;;;;;;7.4;6.7;;;;;;;;;;;;;
2019/07/11 19:19:03;;;;;;;9.3;7.7;;;;;;;;;;;;;
2019/07/11 19:21:28;;;;;;;6.6;5.9;;;;;;;;;;;;;
2019/07/11 19:23:53;;;;;;;6.9;6.3;;;;;;;;;;;;;
2019/07/11 19:26:18;;;;;;;7.6;6.1;;;;;;;;;;;;;
2019/07/11 19:28:43;;;;;;;6.5;5.9;;;;;;;;;;;;;
2019/07/11 19:31:08;;;;;;;6.7;6.1;;;;;;;;;;;;;
2019/07/11 19:33:33;;;;;;;7;6.1;;;;;;;;;;;;;
2019/07/11 19:35:58;;;;;;;7.7;6.1;;;;;;;;;;;;;
2019/07/11 19:38:23;;;;;;;7.8;6.1;;;;;;;;;;;;;
2019/07/11 19:40:48;;;;;;;7.1;6.4;;;;;;;;;;;;;
2019/07/11 19:43:13;;;;;;;8.1;6.9;;;;;;;;;;;;;
2019/07/11 19:45:39;;;;;;;7.1;6.4;;;;;;;;;;;;;
2019/07/11 19:48:04;;;;;;;8.4;7.6;;;;;;;;;;;;;
2019/07/11 19:50:29;;;;;;;8.6;7.1;;;;;;;;;;;;;
2019/07/11 19:52:54;;;;;;;8.5;7.6;;;;;;;;;;;;;
2019/07/11 19:55:19;;;;;;;8.8;8;;;;;;;;;;;;;
2019/07/11 19:57:44;;;;;;;8.4;7.6;;;;;;;;;;;;;
2019/07/11 20:00:09;;;;;;;8.2;7.5;;;;;;;;;;;;;
2019/07/11 20:02:34;;;;;;;8;7.2;;;;;;;;;;;;;
2019/07/11 20:04:59;;;;;;;8.1;7.4;;;;;;;;;;;;;
2019/07/11 20:07:24;;;;;;;8.6;7.8;;;;;;;;;;;;;
2019/07/11 20:09:49;;;;;;;8.1;7.3;;;;;;;;;;;;;
2019/07/11 20:12:15;;;;;;;8.5;7.5;;;;;;;;;;;;;
2019/07/11 20:14:40;;;;;;;8.4;7.7;;;;;;;;;;;;;
2019/07/11 20:17:05;;;;;;;8.4;7.6;;;;;;;;;;;;;
2019/07/11 20:19:30;;;;;;;8.9;8.1;;;;;;;;;;;;;
2019/07/11 20:21:55;;;;;;;9.3;8.4;;;;;;;;;;;;;
2019/07/11 20:24:20;;;;;;;9.1;8.2;;;;;;;;;;;;;
2019/07/11 20:26:45;;;;;;;9.7;8.4;;;;;;;;;;;;;
2019/07/11 20:29:10;;;;;;;10.1;9.1;;;;;;;;;;;;;
2019/07/11 20:31:35;;;;;;;10.1;9.2;;;;;;;;;;;;;
2019/07/11 20:34:00;;;;;;;9;8.2;;;;;;;;;;;;;